Time;durP1;ratioP1;P1;durP2;ratioP2;P2;SDS_P1;SDS_P2;PMS_P1;PMS_P2;Temp;Humidity;BMP_temperature;BMP_pressure;BME280_temperature;BME280_humidity;BME280_pressure;Samples;Min_cycle;Max_cycle;Signal;HPM_P1;HPM_P2
2021/03/13 00:02:15;;;;;;;0.57;0.47;;;;;;;;;;5034885;28;20045;-77
2021/03/13 00:04:41;;;;;;;0.55;0.40;;;;;;;;;;5034488;28;20084;-76
2021/03/13 00:07:07;;;;;;;1.00;0.65;;;;;;;;;;5032652;28;20493;-77
2021/03/13 00:09:33;;;;;;;0.45;0.30;;;;;;;;;;5034405;28;20127;-77
2021/03/13 00:11:59;;;;;;;0.43;0.30;;;;;;;;;;5042964;28;20041;-77
2021/03/13 00:14:25;;;;;;;0.85;0.50;;;;;;;;;;5054516;28;20458;-77
2021/03/13 00:16:51;;;;;;;1.48;0.50;;;;;;;;;;5054532;28;20408;-77
2021/03/13 00:19:20;;;;;;;1.20;0.40;;;;;;;;;;5056068;28;20108;-76
2021/03/13 00:21:46;;;;;;;1.25;0.50;;;;;;;;;;5052726;28;20049;-77
2021/03/13 00:24:12;;;;;;;0.38;0.30;;;;;;;;;;5052805;28;20049;-77
2021/03/13 00:26:38;;;;;;;2.20;0.55;;;;;;;;;;5052940;28;20053;-77
2021/03/13 00:29:04;;;;;;;0.32;0.30;;;;;;;;;;5053336;28;20103;-76
2021/03/13 00:31:30;;;;;;;0.30;0.30;;;;;;;;;;5052882;28;20091;-76
2021/03/13 00:33:57;;;;;;;1.05;0.20;;;;;;;;;;5052980;28;20431;-77
2021/03/13 00:36:23;;;;;;;1.35;0.40;;;;;;;;;;5051856;28;20052;-76
2021/03/13 00:38:49;;;;;;;0.57;0.40;;;;;;;;;;5052908;28;20057;-76
2021/03/13 00:41:15;;;;;;;1.52;0.40;;;;;;;;;;5051611;28;20397;-76
2021/03/13 00:43:41;;;;;;;0.57;0.50;;;;;;;;;;5051424;28;20488;-76
2021/03/13 00:46:07;;;;;;;2.05;0.50;;;;;;;;;;5050577;28;20230;-76
2021/03/13 00:48:33;;;;;;;3.05;0.60;;;;;;;;;;5052032;28;20045;-76
2021/03/13 00:51:00;;;;;;;1.60;0.55;;;;;;;;;;5052482;28;20049;-76
2021/03/13 00:53:26;;;;;;;0.52;0.47;;;;;;;;;;5051210;28;20092;-76
2021/03/13 00:55:52;;;;;;;2.85;0.75;;;;;;;;;;5051797;28;20079;-76
2021/03/13 00:58:19;;;;;;;4.22;0.90;;;;;;;;;;5052597;28;20080;-76
2021/03/13 01:00:45;;;;;;;1.77;0.47;;;;;;;;;;5051058;28;20045;-76
2021/03/13 01:03:11;;;;;;;2.28;0.73;;;;;;;;;;5051211;28;20099;-76
2021/03/13 01:05:37;;;;;;;2.38;0.63;;;;;;;;;;5049038;28;20056;-76
2021/03/13 01:08:07;;;;;;;1.60;0.50;;;;;;;;;;5047697;28;20093;-76
2021/03/13 01:10:49;;;;;;;0.55;0.50;;;;;;;;;;5031195;28;20050;-76
2021/03/13 01:13:16;;;;;;;1.13;0.63;;;;;;;;;;5032410;28;20455;-76
2021/03/13 01:15:44;;;;;;;0.20;0.20;;;;;;;;;;5009302;28;612407;-76
2021/03/13 01:18:10;;;;;;;0.85;0.30;;;;;;;;;;5040564;28;20052;-76
2021/03/13 01:20:36;;;;;;;3.35;0.40;;;;;;;;;;5052814;28;20504;-76
2021/03/13 01:23:03;;;;;;;0.32;0.32;;;;;;;;;;5035496;28;20190;-76
2021/03/13 01:25:29;;;;;;;1.10;0.25;;;;;;;;;;5052242;28;20087;-76
2021/03/13 01:27:55;;;;;;;1.95;0.20;;;;;;;;;;5052901;28;20045;-75
2021/03/13 01:30:21;;;;;;;3.17;0.30;;;;;;;;;;5044847;28;20049;-76
2021/03/13 01:32:48;;;;;;;0.77;0.20;;;;;;;;;;5042336;28;20455;-76
2021/03/13 01:35:14;;;;;;;2.67;0.35;;;;;;;;;;5051198;28;20049;-75
2021/03/13 01:37:41;;;;;;;0.20;0.20;;;;;;;;;;5051300;28;20107;-76
2021/03/13 01:40:10;;;;;;;0.63;0.17;;;;;;;;;;5052779;28;20049;-76
2021/03/13 01:42:37;;;;;;;1.17;0.25;;;;;;;;;;5047786;28;20053;-76
2021/03/13 01:45:05;;;;;;;4.07;1.95;;;;;;;;;;5031252;28;20107;-76
2021/03/13 01:47:31;;;;;;;0.40;0.30;;;;;;;;;;5032049;28;20108;-76
2021/03/13 01:49:58;;;;;;;0.57;0.40;;;;;;;;;;5014962;28;20053;-76
2021/03/13 01:52:24;;;;;;;0.43;0.30;;;;;;;;;;5015342;28;20069;-77
2021/03/13 01:54:50;;;;;;;2.10;0.47;;;;;;;;;;5024551;28;20053;-76
2021/03/13 01:57:17;;;;;;;1.10;0.43;;;;;;;;;;5051785;28;20103;-77
2021/03/13 01:59:44;;;;;;;0.80;0.30;;;;;;;;;;5051134;28;20083;-77
2021/03/13 02:02:11;;;;;;;0.70;0.43;;;;;;;;;;5034705;28;20801;-76
2021/03/13 02:04:40;;;;;;;1.13;0.30;;;;;;;;;;5052266;28;20052;-76
2021/03/13 02:07:34;;;;;;;2.92;0.50;;;;;;;;;;5023461;28;20061;-77
2021/03/13 02:10:07;;;;;;;1.23;0.52;;;;;;;;;;5032175;28;20130;-76
2021/03/13 02:12:53;;;;;;;1.13;0.52;;;;;;;;;;5031804;28;20484;-77
2021/03/13 02:15:39;;;;;;;2.22;0.68;;;;;;;;;;5030298;28;20949;-76
2021/03/13 02:18:12;;;;;;;2.33;1.02;;;;;;;;;;5047460;28;20504;-76
2021/03/13 02:21:09;;;;;;;2.55;0.50;;;;;;;;;;5030985;28;20455;-76
2021/03/13 02:23:47;;;;;;;1.70;0.52;;;;;;;;;;5031003;28;20259;-76
2021/03/13 02:29:14;;;;;;;1.40;0.70;;;;;;;;;;5048819;28;20041;-69
2021/03/13 02:31:49;;;;;;;0.73;0.60;;;;;;;;;;5051644;28;20400;-69
2021/03/13 02:34:20;;;;;;;1.55;0.70;;;;;;;;;;5050768;28;20048;-69
2021/03/13 02:36:46;;;;;;;2.17;0.63;;;;;;;;;;5050243;28;20106;-69
2021/03/13 02:39:13;;;;;;;4.10;0.80;;;;;;;;;;5034328;28;20128;-69
2021/03/13 02:41:46;;;;;;;3.25;0.90;;;;;;;;;;5033583;28;20049;-69
2021/03/13 02:44:14;;;;;;;1.10;0.60;;;;;;;;;;5032364;28;20409;-68
2021/03/13 02:46:46;;;;;;;1.70;0.80;;;;;;;;;;5031096;28;20103;-68
2021/03/13 02:49:13;;;;;;;1.53;0.63;;;;;;;;;;5030678;28;20057;-69
2021/03/13 02:51:39;;;;;;;1.63;0.70;;;;;;;;;;5047120;28;20284;-68
2021/03/13 02:54:05;;;;;;;4.20;0.68;;;;;;;;;;5030416;28;20079;-69
2021/03/13 02:56:32;;;;;;;2.30;0.65;;;;;;;;;;5046915;28;20084;-69
2021/03/13 02:58:59;;;;;;;1.35;0.70;;;;;;;;;;5050183;28;20111;-69
2021/03/13 03:01:27;;;;;;;0.70;0.50;;;;;;;;;;5050296;28;20069;-69
2021/03/13 03:03:53;;;;;;;3.33;0.80;;;;;;;;;;5033882;28;20094;-69
2021/03/13 03:06:19;;;;;;;1.67;0.82;;;;;;;;;;5051834;28;20049;-69
2021/03/13 03:08:46;;;;;;;2.20;0.73;;;;;;;;;;5037907;28;20073;-69
2021/03/13 03:11:12;;;;;;;8.23;0.90;;;;;;;;;;5055662;28;20049;-69
2021/03/13 03:13:38;;;;;;;1.65;0.60;;;;;;;;;;5054287;28;20477;-69
2021/03/13 03:16:05;;;;;;;2.17;0.70;;;;;;;;;;5050107;28;20120;-69
2021/03/13 03:18:31;;;;;;;3.42;0.70;;;;;;;;;;5034184;28;20054;-69
2021/03/13 03:20:58;;;;;;;3.10;1.08;;;;;;;;;;5034062;28;20103;-69
2021/03/13 03:23:24;;;;;;;5.03;0.80;;;;;;;;;;5034347;28;20099;-69
2021/03/13 03:25:53;;;;;;;3.58;1.20;;;;;;;;;;5034710;28;20092;-69
2021/03/13 03:28:21;;;;;;;3.20;1.00;;;;;;;;;;5035192;28;20490;-69
2021/03/13 03:30:50;;;;;;;4.47;1.00;;;;;;;;;;5035135;28;20045;-69
2021/03/13 03:33:17;;;;;;;4.20;1.10;;;;;;;;;;5035424;28;20049;-69
2021/03/13 03:35:43;;;;;;;3.70;0.98;;;;;;;;;;5034516;28;20072;-69
2021/03/13 03:38:10;;;;;;;3.20;0.68;;;;;;;;;;5034995;28;20053;-69
2021/03/13 03:40:36;;;;;;;2.92;0.88;;;;;;;;;;5050474;28;20415;-69
2021/03/13 03:43:05;;;;;;;4.63;0.82;;;;;;;;;;5034740;28;20053;-69
2021/03/13 03:45:32;;;;;;;2.80;0.77;;;;;;;;;;5034444;28;20111;-69
2021/03/13 03:48:02;;;;;;;2.90;0.90;;;;;;;;;;5033591;28;20049;-69
2021/03/13 03:50:29;;;;;;;3.60;0.77;;;;;;;;;;5033785;28;20058;-69
2021/03/13 03:52:55;;;;;;;3.67;0.90;;;;;;;;;;5033630;28;20049;-69
2021/03/13 03:55:21;;;;;;;1.25;0.63;;;;;;;;;;5035116;28;20061;-68
2021/03/13 03:57:47;;;;;;;3.33;0.68;;;;;;;;;;5053341;28;20052;-69
2021/03/13 04:00:15;;;;;;;3.45;0.73;;;;;;;;;;5037028;28;20191;-69
2021/03/13 04:02:54;;;;;;;4.57;0.80;;;;;;;;;;5038445;28;20552;-69
2021/03/13 04:05:21;;;;;;;0.98;0.60;;;;;;;;;;5036447;28;20045;-68
2021/03/13 04:07:47;;;;;;;3.28;0.70;;;;;;;;;;5054182;28;20048;-69
2021/03/13 04:10:14;;;;;;;3.55;1.15;;;;;;;;;;5036843;28;20053;-69
2021/03/13 04:12:41;;;;;;;3.10;0.90;;;;;;;;;;5053173;28;20049;-69
2021/03/13 04:15:11;;;;;;;3.90;1.15;;;;;;;;;;5069427;28;20088;-69
2021/03/13 04:17:38;;;;;;;4.50;0.68;;;;;;;;;;5052559;28;20079;-69
2021/03/13 04:20:08;;;;;;;3.00;0.60;;;;;;;;;;5054177;28;20063;-69
2021/03/13 04:22:36;;;;;;;2.38;0.52;;;;;;;;;;5054182;28;20049;-69
2021/03/13 04:25:04;;;;;;;1.20;0.40;;;;;;;;;;5069657;28;20057;-69
2021/03/13 04:27:30;;;;;;;3.42;0.65;;;;;;;;;;5050394;28;20508;-69
2021/03/13 04:29:56;;;;;;;2.10;0.47;;;;;;;;;;5042012;28;20049;-69
2021/03/13 04:32:23;;;;;;;4.60;0.75;;;;;;;;;;5045800;28;20069;-69
2021/03/13 04:34:49;;;;;;;2.85;0.70;;;;;;;;;;5032684;28;20041;-69
2021/03/13 04:37:16;;;;;;;1.20;0.55;;;;;;;;;;5033321;28;20184;-69
2021/03/13 04:39:43;;;;;;;2.10;0.60;;;;;;;;;;5016447;28;20516;-69
2021/03/13 04:42:09;;;;;;;2.28;0.50;;;;;;;;;;5047694;28;20095;-69
2021/03/13 04:44:36;;;;;;;3.22;0.85;;;;;;;;;;5032654;28;20491;-69
2021/03/13 04:47:03;;;;;;;1.42;0.70;;;;;;;;;;5031978;28;20057;-69
2021/03/13 04:49:29;;;;;;;3.00;0.55;;;;;;;;;;5038642;28;20053;-69
2021/03/13 04:51:59;;;;;;;3.78;0.73;;;;;;;;;;5033528;28;20399;-69
2021/03/13 04:54:27;;;;;;;5.13;1.25;;;;;;;;;;5050116;28;20450;-69
2021/03/13 04:56:53;;;;;;;1.40;0.90;;;;;;;;;;5032808;28;20546;-69
2021/03/13 04:59:19;;;;;;;2.78;0.70;;;;;;;;;;5033642;28;20107;-69
2021/03/13 05:01:46;;;;;;;1.85;0.50;;;;;;;;;;5033433;28;20049;-69
2021/03/13 05:04:12;;;;;;;4.40;0.70;;;;;;;;;;5033548;28;20049;-69
2021/03/13 05:06:38;;;;;;;2.83;0.50;;;;;;;;;;5032934;28;20116;-69
2021/03/13 05:09:05;;;;;;;1.40;0.45;;;;;;;;;;5033382;28;20499;-69
2021/03/13 05:11:33;;;;;;;6.45;1.77;;;;;;;;;;5033456;28;20045;-69
2021/03/13 05:14:01;;;;;;;1.55;0.47;;;;;;;;;;5033334;28;20057;-69
2021/03/13 05:16:28;;;;;;;4.72;0.45;;;;;;;;;;5032672;28;20099;-69
2021/03/13 05:18:54;;;;;;;1.58;0.40;;;;;;;;;;5033297;28;20059;-70
2021/03/13 05:21:21;;;;;;;1.00;0.40;;;;;;;;;;5033148;28;20050;-69
2021/03/13 05:23:47;;;;;;;1.75;0.50;;;;;;;;;;5033074;28;20089;-69
2021/03/13 05:26:16;;;;;;;2.03;0.50;;;;;;;;;;5032369;28;20150;-69
2021/03/13 05:28:42;;;;;;;2.20;0.63;;;;;;;;;;5032305;28;20475;-69
2021/03/13 05:31:08;;;;;;;4.03;0.40;;;;;;;;;;5032846;28;20103;-69
2021/03/13 05:33:45;;;;;;;4.47;0.50;;;;;;;;;;5032846;28;20412;-69
2021/03/13 05:36:11;;;;;;;1.95;0.40;;;;;;;;;;5032507;28;20111;-69
2021/03/13 05:38:37;;;;;;;1.65;0.28;;;;;;;;;;5032955;28;20103;-69
2021/03/13 05:41:04;;;;;;;3.25;0.88;;;;;;;;;;5032600;28;20049;-69
2021/03/13 05:43:30;;;;;;;2.28;0.40;;;;;;;;;;5031747;28;20472;-70
2021/03/13 05:45:56;;;;;;;2.65;0.50;;;;;;;;;;5014727;28;20396;-70
2021/03/13 05:48:22;;;;;;;2.00;0.45;;;;;;;;;;5015207;28;20056;-69
2021/03/13 05:50:49;;;;;;;1.13;0.38;;;;;;;;;;5039728;28;20083;-70
2021/03/13 05:53:15;;;;;;;3.05;0.45;;;;;;;;;;5068045;28;20080;-70
2021/03/13 05:55:41;;;;;;;3.17;0.68;;;;;;;;;;5050536;28;20056;-70
2021/03/13 05:58:07;;;;;;;3.88;0.85;;;;;;;;;;5051036;28;20651;-70
2021/03/13 06:00:36;;;;;;;0.82;0.25;;;;;;;;;;5067604;28;20053;-69
2021/03/13 06:03:02;;;;;;;1.55;0.50;;;;;;;;;;5051021;28;20057;-69
2021/03/13 06:05:28;;;;;;;1.23;0.40;;;;;;;;;;5067019;28;20063;-69
2021/03/13 06:07:57;;;;;;;2.33;0.50;;;;;;;;;;5052021;28;20136;-70
2021/03/13 06:10:23;;;;;;;2.05;0.40;;;;;;;;;;5052122;28;20093;-69
2021/03/13 06:12:49;;;;;;;2.75;0.50;;;;;;;;;;5050953;28;20045;-69
2021/03/13 06:15:16;;;;;;;0.32;0.30;;;;;;;;;;5051845;28;20102;-69
2021/03/13 06:18:02;;;;;;;3.00;0.40;;;;;;;;;;5051699;28;20094;-69
2021/03/13 06:20:36;;;;;;;2.30;0.30;;;;;;;;;;5052034;28;20060;-69
2021/03/13 06:23:11;;;;;;;3.13;0.68;;;;;;;;;;5051852;28;20098;-70
2021/03/13 06:25:37;;;;;;;1.85;0.38;;;;;;;;;;5039342;28;20107;-69
2021/03/13 06:28:09;;;;;;;3.80;0.40;;;;;;;;;;5031437;28;20049;-69
2021/03/13 06:30:40;;;;;;;2.38;0.60;;;;;;;;;;5031992;28;20053;-69
2021/03/13 06:33:28;;;;;;;;;;;;;;;;;;5032468;28;20060;-69
2021/03/13 06:36:00;;;;;;;3.97;0.43;;;;;;;;;;5030964;28;19924;-69
2021/03/13 06:38:29;;;;;;;4.45;0.50;;;;;;;;;;5030744;28;20291;-69
2021/03/13 06:40:58;;;;;;;6.60;0.98;;;;;;;;;;5031856;28;20470;-70
2021/03/13 06:43:27;;;;;;;1.55;0.50;;;;;;;;;;5031934;28;20570;-69
2021/03/13 06:46:01;;;;;;;1.40;0.60;;;;;;;;;;5041757;28;20048;-69
2021/03/13 06:48:35;;;;;;;5.03;0.70;;;;;;;;;;5037744;28;20049;-69
2021/03/13 06:51:19;;;;;;;1.52;0.70;;;;;;;;;;5039564;28;20094;-69
2021/03/13 06:53:46;;;;;;;1.73;0.65;;;;;;;;;;5044890;28;20053;-70
2021/03/13 06:56:13;;;;;;;2.25;0.60;;;;;;;;;;5029978;28;20053;-69
2021/03/13 06:58:40;;;;;;;6.18;0.75;;;;;;;;;;5031796;28;20103;-70
2021/03/13 07:01:07;;;;;;;4.05;0.85;;;;;;;;;;5029450;28;20500;-70
2021/03/13 07:03:41;;;;;;;1.13;0.50;;;;;;;;;;5029369;28;20136;-71
2021/03/13 07:06:15;;;;;;;3.13;0.65;;;;;;;;;;5028628;28;20080;-70
2021/03/13 07:08:41;;;;;;;2.97;0.75;;;;;;;;;;5029410;28;20139;-71
2021/03/13 07:11:08;;;;;;;2.50;0.68;;;;;;;;;;5028599;28;20103;-71
2021/03/13 07:13:45;;;;;;;3.92;0.40;;;;;;;;;;5029119;28;20120;-71
2021/03/13 07:16:30;;;;;;;2.70;0.93;;;;;;;;;;5037265;28;20488;-70
2021/03/13 07:19:10;;;;;;;1.52;0.60;;;;;;;;;;5049284;28;20056;-71
2021/03/13 07:21:38;;;;;;;2.20;0.73;;;;;;;;;;5049561;28;20041;-71
2021/03/13 07:24:06;;;;;;;3.92;0.80;;;;;;;;;;5048187;28;20087;-69
2021/03/13 07:26:39;;;;;;;6.50;1.42;;;;;;;;;;5048035;28;20479;-70
2021/03/13 07:29:08;;;;;;;3.13;0.40;;;;;;;;;;5048930;28;20053;-70
2021/03/13 07:31:40;;;;;;;4.95;1.10;;;;;;;;;;5049288;28;20081;-70
2021/03/13 07:34:20;;;;;;;3.17;0.57;;;;;;;;;;5049032;28;20419;-69
2021/03/13 07:36:57;;;;;;;4.20;1.05;;;;;;;;;;5046852;28;20503;-70
2021/03/13 07:39:29;;;;;;;4.13;0.82;;;;;;;;;;5044919;28;20053;-71
2021/03/13 07:42:03;;;;;;;3.63;0.60;;;;;;;;;;5040274;28;20041;-70
2021/03/13 07:44:30;;;;;;;2.92;0.90;;;;;;;;;;5029096;28;20216;-70
2021/03/13 07:46:59;;;;;;;3.28;0.57;;;;;;;;;;5028437;28;20508;-71
2021/03/13 07:49:25;;;;;;;1.42;0.30;;;;;;;;;;5027142;28;20045;-69
2021/03/13 07:51:52;;;;;;;8.48;1.00;;;;;;;;;;5051193;28;20045;-70
2021/03/13 07:54:18;;;;;;;2.05;0.90;;;;;;;;;;5048424;28;20052;-70
2021/03/13 07:56:44;;;;;;;2.28;0.35;;;;;;;;;;5044493;28;20048;-69
2021/03/13 07:59:31;;;;;;;1.85;0.80;;;;;;;;;;5049385;28;20106;-70
2021/03/13 08:01:57;;;;;;;2.15;0.60;;;;;;;;;;5049442;28;20085;-69
2021/03/13 08:04:38;;;;;;;1.13;0.60;;;;;;;;;;5051096;28;20053;-70
2021/03/13 08:07:05;;;;;;;1.55;0.45;;;;;;;;;;5046777;28;20084;-69
2021/03/13 08:09:31;;;;;;;0.82;0.38;;;;;;;;;;5049962;28;20455;-70
2021/03/13 08:11:59;;;;;;;1.35;0.32;;;;;;;;;;5050704;28;20110;-73
2021/03/13 08:14:34;;;;;;;3.38;0.65;;;;;;;;;;5048831;28;20044;-70
2021/03/13 08:17:10;;;;;;;1.42;0.28;;;;;;;;;;5055347;28;20055;-70
2021/03/13 08:19:38;;;;;;;1.83;0.50;;;;;;;;;;5044580;28;20108;-70
2021/03/13 08:22:12;;;;;;;3.85;0.40;;;;;;;;;;5033351;28;20486;-70
2021/03/13 08:24:51;;;;;;;0.60;0.30;;;;;;;;;;5044914;28;20093;-71
2021/03/13 08:27:33;;;;;;;0.73;0.30;;;;;;;;;;5045610;28;20044;-68
2021/03/13 08:29:59;;;;;;;1.65;0.22;;;;;;;;;;5049519;28;20133;-70
2021/03/13 08:33:05;;;;;;;1.52;0.30;;;;;;;;;;5042597;28;20431;-69
2021/03/13 08:35:45;;;;;;;1.25;0.30;;;;;;;;;;5004611;28;20049;-70
2021/03/13 08:38:12;;;;;;;2.63;0.50;;;;;;;;;;5045954;28;20052;-71
2021/03/13 08:40:44;;;;;;;1.48;0.30;;;;;;;;;;5047886;28;20118;-69
2021/03/13 08:43:36;;;;;;;0.60;0.30;;;;;;;;;;5049275;28;20094;-69
2021/03/13 08:46:03;;;;;;;1.48;0.10;;;;;;;;;;5049694;28;20061;-70
2021/03/13 08:48:54;;;;;;;2.30;0.30;;;;;;;;;;5050331;28;20053;-69
2021/03/13 08:51:21;;;;;;;0.85;0.40;;;;;;;;;;5044193;28;20049;-69
2021/03/13 08:53:47;;;;;;;2.58;0.50;;;;;;;;;;5049702;28;20080;-71
2021/03/13 08:56:40;;;;;;;2.20;0.70;;;;;;;;;;5048731;28;20053;-71
2021/03/13 08:59:19;;;;;;;1.85;0.43;;;;;;;;;;5049898;28;20041;-72
2021/03/13 09:02:12;;;;;;;1.90;0.40;;;;;;;;;;5048535;28;20044;-71
2021/03/13 09:04:40;;;;;;;2.83;0.43;;;;;;;;;;5049532;28;20131;-72
2021/03/13 09:07:08;;;;;;;2.75;0.50;;;;;;;;;;5048150;28;20118;-71
2021/03/13 09:09:36;;;;;;;2.70;0.70;;;;;;;;;;5049255;28;20106;-72
2021/03/13 09:12:07;;;;;;;2.10;1.20;;;;;;;;;;5049058;28;20206;-71
2021/03/13 09:14:34;;;;;;;3.42;0.73;;;;;;;;;;5070365;22;20053;-73
2021/03/13 09:17:10;;;;;;;1.20;0.50;;;;;;;;;;5013146;28;20064;-70
2021/03/13 09:19:37;;;;;;;4.75;0.50;;;;;;;;;;5032019;28;20054;-70
2021/03/13 09:22:10;;;;;;;2.35;0.40;;;;;;;;;;5031207;28;20099;-69
2021/03/13 09:24:36;;;;;;;2.85;0.60;;;;;;;;;;5031870;28;20522;-70
2021/03/13 09:27:04;;;;;;;1.45;0.50;;;;;;;;;;5013592;28;20107;-70
2021/03/13 09:29:34;;;;;;;2.13;0.40;;;;;;;;;;5031187;28;20050;-71
2021/03/13 09:32:11;;;;;;;2.40;0.50;;;;;;;;;;5030930;28;20076;-70
2021/03/13 09:34:44;;;;;;;1.85;0.68;;;;;;;;;;5013778;28;20049;-70
2021/03/13 09:37:20;;;;;;;4.03;0.55;;;;;;;;;;4997178;28;20057;-70
2021/03/13 09:39:51;;;;;;;1.02;0.38;;;;;;;;;;5027480;28;20073;-72
2021/03/13 09:42:21;;;;;;;1.15;0.65;;;;;;;;;;5026233;28;20041;-71
2021/03/13 09:44:48;;;;;;;2.75;0.50;;;;;;;;;;5000194;28;20499;-73
2021/03/13 09:47:30;;;;;;;3.40;0.73;;;;;;;;;;5028524;28;20045;-72
2021/03/13 09:49:58;;;;;;;1.45;0.55;;;;;;;;;;5027046;28;20056;-71
2021/03/13 09:52:34;;;;;;;1.67;0.40;;;;;;;;;;5006025;28;20099;-68
2021/03/13 09:55:03;;;;;;;1.40;0.63;;;;;;;;;;5029985;28;20506;-69
2021/03/13 09:57:29;;;;;;;3.38;0.60;;;;;;;;;;5011829;28;20058;-69
2021/03/13 09:59:55;;;;;;;1.27;0.40;;;;;;;;;;5028379;28;20519;-71
2021/03/13 10:02:22;;;;;;;0.55;0.35;;;;;;;;;;5012433;28;20053;-68
2021/03/13 10:04:52;;;;;;;2.00;0.60;;;;;;;;;;5030166;28;20049;-69
2021/03/13 10:07:27;;;;;;;1.73;0.40;;;;;;;;;;5028482;28;20050;-70
2021/03/13 10:09:54;;;;;;;2.40;0.80;;;;;;;;;;4995786;28;20175;-70
2021/03/13 10:12:32;;;;;;;2.05;0.30;;;;;;;;;;5010770;28;20042;-71
2021/03/13 10:15:19;;;;;;;1.33;0.50;;;;;;;;;;5028896;28;20057;-71
2021/03/13 10:17:50;;;;;;;1.80;0.57;;;;;;;;;;5026634;28;20053;-71
2021/03/13 10:20:16;;;;;;;1.05;0.70;;;;;;;;;;5030221;28;20103;-70
2021/03/13 10:22:50;;;;;;;2.55;0.80;;;;;;;;;;5029547;28;20135;-71
2021/03/13 10:25:17;;;;;;;0.95;0.30;;;;;;;;;;4990664;28;20082;-74
2021/03/13 10:28:15;;;;;;;1.40;0.60;;;;;;;;;;4978849;28;20141;-72
2021/03/13 10:30:43;;;;;;;5.32;1.00;;;;;;;;;;5007914;28;20056;-70
2021/03/13 10:33:14;;;;;;;2.13;0.73;;;;;;;;;;5027534;28;20124;-70
2021/03/13 10:35:40;;;;;;;2.30;0.60;;;;;;;;;;5028567;28;20053;-71
2021/03/13 10:38:09;;;;;;;0.17;0.13;;;;;;;;;;5022567;28;20057;-73
2021/03/13 10:40:46;;;;;;;2.15;0.40;;;;;;;;;;5029771;28;20107;-72
2021/03/13 10:43:21;;;;;;;4.43;0.70;;;;;;;;;;5004830;28;20041;-71
2021/03/13 10:45:56;;;;;;;2.85;0.45;;;;;;;;;;5028186;28;20072;-70
2021/03/13 10:48:23;;;;;;;2.55;1.35;;;;;;;;;;5025527;28;20089;-70
2021/03/13 10:50:50;;;;;;;1.70;0.80;;;;;;;;;;5029225;28;20049;-70
2021/03/13 10:53:39;;;;;;;4.15;0.50;;;;;;;;;;5025744;28;20565;-70
2021/03/13 10:56:06;;;;;;;2.88;0.30;;;;;;;;;;5027257;28;20111;-70
2021/03/13 10:58:56;;;;;;;1.85;0.77;;;;;;;;;;5029214;28;20051;-71
2021/03/13 11:01:23;;;;;;;3.33;0.70;;;;;;;;;;5028687;28;20046;-69
2021/03/13 11:03:50;;;;;;;0.65;0.60;;;;;;;;;;5029764;28;20049;-69
2021/03/13 11:06:33;;;;;;;1.52;0.70;;;;;;;;;;5028052;28;20045;-70
2021/03/13 11:09:01;;;;;;;0.70;0.50;;;;;;;;;;5024802;28;20160;-69
2021/03/13 11:11:28;;;;;;;2.05;0.85;;;;;;;;;;5029602;28;20069;-69
2021/03/13 11:13:55;;;;;;;1.10;0.50;;;;;;;;;;5028544;28;20566;-69
2021/03/13 11:16:22;;;;;;;4.55;0.70;;;;;;;;;;5027881;28;20058;-69
2021/03/13 11:18:50;;;;;;;6.78;1.13;;;;;;;;;;5027642;28;20133;-69
2021/03/13 11:21:16;;;;;;;2.30;0.60;;;;;;;;;;5029657;28;20057;-69
2021/03/13 11:23:43;;;;;;;1.95;0.52;;;;;;;;;;5028940;28;20041;-69
2021/03/13 11:26:11;;;;;;;0.85;0.32;;;;;;;;;;5006858;28;20092;-69
2021/03/13 11:28:38;;;;;;;1.02;0.38;;;;;;;;;;5032771;28;20056;-69
2021/03/13 11:31:05;;;;;;;2.15;0.25;;;;;;;;;;5012716;28;20566;-70
2021/03/13 11:33:31;;;;;;;1.83;0.90;;;;;;;;;;5015615;28;20566;-70
2021/03/13 11:35:58;;;;;;;0.93;0.50;;;;;;;;;;5031769;28;20055;-68
2021/03/13 11:38:32;;;;;;;1.75;0.47;;;;;;;;;;5028483;28;20107;-68
2021/03/13 11:40:58;;;;;;;3.63;0.38;;;;;;;;;;5032124;28;20519;-69
2021/03/13 11:43:25;;;;;;;1.05;0.50;;;;;;;;;;5033169;28;20045;-69
2021/03/13 11:45:51;;;;;;;1.40;0.40;;;;;;;;;;5029916;28;20122;-69
2021/03/13 11:48:18;;;;;;;1.20;0.80;;;;;;;;;;5032636;28;20504;-69
2021/03/13 11:50:45;;;;;;;0.57;0.40;;;;;;;;;;5032339;28;20107;-68
2021/03/13 11:53:11;;;;;;;0.73;0.25;;;;;;;;;;5032246;28;20423;-70
2021/03/13 11:55:38;;;;;;;3.28;0.47;;;;;;;;;;5027838;28;20050;-69
2021/03/13 11:58:04;;;;;;;1.95;0.40;;;;;;;;;;5028462;28;20053;-68
2021/03/13 12:00:51;;;;;;;1.65;0.60;;;;;;;;;;5017466;28;20076;-68
2021/03/13 12:03:18;;;;;;;1.58;0.50;;;;;;;;;;5032196;28;20046;-68
2021/03/13 12:05:44;;;;;;;3.17;0.38;;;;;;;;;;5031247;28;20103;-69
2021/03/13 12:08:10;;;;;;;0.85;0.25;;;;;;;;;;5032298;28;20049;-68
2021/03/13 12:10:37;;;;;;;3.17;0.38;;;;;;;;;;5032046;28;20049;-69
2021/03/13 12:13:04;;;;;;;0.28;0.17;;;;;;;;;;5032201;28;20049;-68
2021/03/13 12:15:30;;;;;;;1.08;0.38;;;;;;;;;;5025565;28;20046;-68
2021/03/13 12:17:56;;;;;;;0.90;0.50;;;;;;;;;;5012306;28;20614;-68
2021/03/13 12:20:22;;;;;;;0.30;0.30;;;;;;;;;;5018788;28;20048;-69
2021/03/13 12:22:48;;;;;;;1.88;0.73;;;;;;;;;;5023299;28;20045;-68
2021/03/13 12:25:14;;;;;;;0.98;0.60;;;;;;;;;;5035550;28;20045;-68
2021/03/13 12:27:41;;;;;;;0.75;0.63;;;;;;;;;;5031607;28;20049;-72
2021/03/13 12:30:12;;;;;;;3.70;0.57;;;;;;;;;;5031079;28;20077;-69
2021/03/13 12:32:39;;;;;;;1.10;0.60;;;;;;;;;;5031609;28;20084;-70
2021/03/13 12:35:08;;;;;;;2.70;0.40;;;;;;;;;;5029072;28;20134;-70
2021/03/13 12:37:35;;;;;;;3.67;0.50;;;;;;;;;;5012031;28;20393;-68
2021/03/13 12:40:06;;;;;;;0.93;0.50;;;;;;;;;;5028343;28;20050;-66
2021/03/13 12:42:32;;;;;;;4.40;0.75;;;;;;;;;;5028065;28;20057;-68
2021/03/13 12:44:59;;;;;;;0.30;0.20;;;;;;;;;;5027382;28;20064;-68
2021/03/13 12:47:25;;;;;;;1.10;0.30;;;;;;;;;;5028996;28;20088;-69
2021/03/13 12:49:51;;;;;;;1.42;0.50;;;;;;;;;;5029316;28;20057;-69
2021/03/13 12:52:17;;;;;;;1.42;0.40;;;;;;;;;;5029504;28;20042;-68
2021/03/13 12:54:43;;;;;;;0.57;0.28;;;;;;;;;;5021114;28;20057;-67
2021/03/13 12:57:09;;;;;;;0.82;0.60;;;;;;;;;;5027765;28;20088;-67
2021/03/13 12:59:35;;;;;;;1.08;0.40;;;;;;;;;;5029003;28;20059;-68
2021/03/13 13:02:02;;;;;;;2.85;0.25;;;;;;;;;;5022734;28;20144;-68
2021/03/13 13:04:30;;;;;;;0.52;0.28;;;;;;;;;;5015876;28;20524;-69
2021/03/13 13:06:58;;;;;;;2.60;0.50;;;;;;;;;;5015107;28;20053;-69
2021/03/13 13:09:37;;;;;;;1.88;0.47;;;;;;;;;;5017419;28;20069;-69
2021/03/13 13:12:03;;;;;;;0.77;0.50;;;;;;;;;;5016420;28;20104;-69
2021/03/13 13:14:29;;;;;;;0.77;0.40;;;;;;;;;;5017523;28;20587;-69
2021/03/13 13:16:58;;;;;;;0.50;0.50;;;;;;;;;;5016382;28;20050;-68
2021/03/13 13:19:24;;;;;;;1.48;0.35;;;;;;;;;;5017430;28;20042;-69
2021/03/13 13:21:50;;;;;;;1.05;0.47;;;;;;;;;;5016055;28;20049;-69
2021/03/13 13:24:17;;;;;;;1.35;0.20;;;;;;;;;;5017347;28;20107;-69
2021/03/13 13:26:43;;;;;;;0.10;0.10;;;;;;;;;;5014804;28;20643;-69
2021/03/13 13:29:09;;;;;;;0.85;0.10;;;;;;;;;;5016977;28;20441;-69
2021/03/13 13:31:35;;;;;;;0.80;0.45;;;;;;;;;;5016303;28;20535;-69
2021/03/13 13:34:02;;;;;;;0.43;0.20;;;;;;;;;;5017091;28;20521;-69
2021/03/13 13:36:28;;;;;;;0.15;0.10;;;;;;;;;;5017232;28;20455;-70
2021/03/13 13:38:56;;;;;;;2.28;0.77;;;;;;;;;;5017899;28;20075;-69
2021/03/13 13:41:22;;;;;;;1.00;0.52;;;;;;;;;;5015834;28;20042;-69
2021/03/13 13:43:49;;;;;;;0.43;0.40;;;;;;;;;;5002116;28;20153;-69
2021/03/13 13:46:15;;;;;;;0.28;0.20;;;;;;;;;;5016790;28;21175;-68
2021/03/13 13:48:41;;;;;;;0.40;0.38;;;;;;;;;;5017191;28;20068;-69
2021/03/13 13:51:08;;;;;;;2.65;0.95;;;;;;;;;;5016021;28;20046;-73
2021/03/13 13:53:34;;;;;;;1.88;0.90;;;;;;;;;;5006696;28;20045;-69
2021/03/13 13:56:01;;;;;;;1.02;0.70;;;;;;;;;;5014911;28;20068;-70
2021/03/13 13:58:28;;;;;;;0.90;0.50;;;;;;;;;;5015826;28;20100;-70
2021/03/13 14:00:54;;;;;;;1.30;0.60;;;;;;;;;;5017261;28;20420;-69
2021/03/13 14:03:21;;;;;;;2.22;0.40;;;;;;;;;;5015257;28;20534;-69
2021/03/13 14:05:48;;;;;;;1.33;0.80;;;;;;;;;;5017577;28;20412;-69
2021/03/13 14:08:15;;;;;;;0.68;0.47;;;;;;;;;;5014514;28;20046;-69
2021/03/13 14:10:42;;;;;;;0.35;0.30;;;;;;;;;;5015476;28;20057;-69
2021/03/13 14:13:08;;;;;;;0.65;0.40;;;;;;;;;;5016043;28;20136;-70
2021/03/13 14:15:34;;;;;;;0.60;0.30;;;;;;;;;;5015169;28;20046;-70
2021/03/13 14:18:05;;;;;;;1.05;0.68;;;;;;;;;;5015058;28;20053;-70
2021/03/13 14:20:31;;;;;;;0.70;0.40;;;;;;;;;;5016693;28;20510;-69
2021/03/13 14:22:57;;;;;;;0.50;0.50;;;;;;;;;;5016157;28;20072;-70
2021/03/13 14:25:23;;;;;;;1.17;0.90;;;;;;;;;;5016959;28;20472;-70
2021/03/13 14:27:49;;;;;;;1.65;0.30;;;;;;;;;;5012983;28;20046;-68
2021/03/13 14:30:17;;;;;;;0.43;0.30;;;;;;;;;;5016271;28;20049;-68
2021/03/13 14:32:43;;;;;;;1.33;0.38;;;;;;;;;;5008440;28;20050;-68
2021/03/13 14:35:18;;;;;;;1.40;0.60;;;;;;;;;;5004575;28;20500;-69
2021/03/13 14:37:44;;;;;;;1.90;1.00;;;;;;;;;;5014664;28;20505;-72
2021/03/13 14:40:12;;;;;;;1.40;0.38;;;;;;;;;;5010450;28;20050;-69
2021/03/13 14:42:39;;;;;;;3.58;0.63;;;;;;;;;;5013759;28;20416;-69
2021/03/13 14:45:06;;;;;;;2.65;0.63;;;;;;;;;;5016455;28;20134;-68
2021/03/13 14:47:32;;;;;;;0.43;0.30;;;;;;;;;;5016035;28;20111;-69
2021/03/13 14:49:59;;;;;;;1.10;0.50;;;;;;;;;;5013360;28;20049;-68
2021/03/13 14:52:25;;;;;;;1.73;0.80;;;;;;;;;;5014865;28;20100;-69
2021/03/13 14:54:51;;;;;;;1.08;0.55;;;;;;;;;;5014881;28;20501;-69
2021/03/13 14:57:19;;;;;;;1.65;0.68;;;;;;;;;;5014708;28;20485;-69
2021/03/13 14:59:45;;;;;;;4.07;0.70;;;;;;;;;;5015545;28;20512;-69